createdAt,value
2022-12-29T00:00:33.260Z,1012.70
2022-12-29T00:05:33.371Z,1012.63
2022-12-29T00:10:31.672Z,1012.50
2022-12-29T00:15:30.992Z,1012.45
2022-12-29T00:20:31.302Z,1012.38
2022-12-29T00:25:29.630Z,1012.40
2022-12-29T00:30:29.934Z,1012.38
2022-12-29T00:35:28.243Z,1012.29
2022-12-29T00:40:27.543Z,1012.17
2022-12-29T00:45:27.842Z,1012.20
2022-12-29T00:50:26.135Z,1012.04
2022-12-29T00:55:26.461Z,1012.03
2022-12-29T01:00:24.823Z,1012.13
2022-12-29T01:05:23.988Z,1012.22
2022-12-29T01:10:23.322Z,1012.22
2022-12-29T01:15:24.649Z,1012.23
2022-12-29T01:20:22.963Z,1012.23
2022-12-29T01:25:22.303Z,1012.26
2022-12-29T01:30:21.571Z,1012.37
2022-12-29T01:35:21.857Z,1012.40
2022-12-29T01:40:19.114Z,1012.38
2022-12-29T01:45:19.408Z,1012.36
2022-12-29T01:50:19.747Z,1012.22
2022-12-29T01:55:18.032Z,1012.21
2022-12-29T02:00:16.339Z,1012.16
2022-12-29T02:05:16.537Z,1012.08
2022-12-29T02:10:13.810Z,1012.08
2022-12-29T02:15:13.938Z,1012.08
2022-12-29T02:20:12.089Z,1012.01
2022-12-29T02:25:12.391Z,1012.11
2022-12-29T02:30:11.687Z,1012.11
2022-12-29T02:35:10.987Z,1012.15
2022-12-29T02:40:11.280Z,1012.06
2022-12-29T02:45:10.622Z,1012.04
2022-12-29T02:50:08.928Z,1012.10
2022-12-29T02:55:08.255Z,1012.07
2022-12-29T03:00:07.596Z,1012.14
2022-12-29T03:05:07.707Z,1011.94
2022-12-29T03:10:08.019Z,1011.82
2022-12-29T03:15:07.320Z,1011.77
2022-12-29T03:20:05.506Z,1011.84
2022-12-29T03:25:04.821Z,1011.77
2022-12-29T03:30:04.164Z,1011.68
2022-12-29T03:35:02.466Z,1011.81
2022-12-29T03:40:03.610Z,1011.85
2022-12-29T03:45:00.897Z,1011.92
2022-12-29T03:50:00.221Z,1011.87
2022-12-29T03:54:59.352Z,1011.80
2022-12-29T03:59:59.673Z,1011.92
2022-12-29T04:04:59.955Z,1011.89
2022-12-29T04:09:56.290Z,1011.85
2022-12-29T04:14:58.407Z,1011.75
2022-12-29T04:19:56.705Z,1011.81
2022-12-29T04:24:56.000Z,1011.79
2022-12-29T04:29:54.322Z,1011.73
2022-12-29T04:34:54.626Z,1011.65
2022-12-29T04:39:54.916Z,1011.76
2022-12-29T04:44:52.192Z,1011.73
2022-12-29T04:49:51.505Z,1011.85
2022-12-29T04:54:51.830Z,1011.76
2022-12-29T04:59:50.152Z,1011.75
2022-12-29T05:04:50.453Z,1011.66
2022-12-29T05:09:49.751Z,1011.68
2022-12-29T05:14:47.053Z,1011.69
2022-12-29T05:19:48.354Z,1011.67
2022-12-29T05:24:47.690Z,1011.58
2022-12-29T05:29:45.814Z,1011.53
2022-12-29T05:34:45.150Z,1011.46
2022-12-29T05:39:44.486Z,1011.46
2022-12-29T05:44:44.819Z,1011.26
2022-12-29T05:49:43.173Z,1011.31
2022-12-29T05:54:42.311Z,1011.31
2022-12-29T05:59:41.443Z,1011.40
2022-12-29T06:04:40.785Z,1011.44
2022-12-29T06:09:39.072Z,1011.46
2022-12-29T06:14:40.384Z,1011.39
2022-12-29T06:19:38.710Z,1011.34
2022-12-29T06:24:38.041Z,1011.34
2022-12-29T06:29:37.344Z,1011.24
2022-12-29T06:34:38.705Z,1011.18
2022-12-29T06:39:35.968Z,1011.15
2022-12-29T06:44:35.313Z,1011.13
2022-12-29T06:49:35.670Z,1011.24
2022-12-29T06:54:33.771Z,1011.35
2022-12-29T06:59:33.122Z,1011.33
2022-12-29T07:04:32.498Z,1011.41
2022-12-29T07:09:31.633Z,1011.52
2022-12-29T07:14:30.931Z,1011.52
2022-12-29T07:19:30.244Z,1011.61
2022-12-29T07:24:30.573Z,1011.56
2022-12-29T07:29:29.891Z,1011.61
2022-12-29T07:34:28.208Z,1011.65
2022-12-29T07:39:27.532Z,1011.72
2022-12-29T07:44:26.845Z,1011.68
2022-12-29T07:49:26.291Z,1011.81
2022-12-29T07:54:25.475Z,1011.81
2022-12-29T07:59:26.804Z,1011.77
2022-12-29T08:04:25.102Z,1012.05
2022-12-29T08:09:24.299Z,1011.68
2022-12-29T08:14:22.644Z,1011.83
2022-12-29T08:19:21.906Z,1011.62
2022-12-29T08:24:21.203Z,1011.74
2022-12-29T08:29:22.963Z,1011.91
2022-12-29T08:34:19.697Z,1011.90
2022-12-29T08:39:21.026Z,1011.99
2022-12-29T08:44:19.349Z,1011.90
2022-12-29T08:49:19.503Z,1012.04
2022-12-29T08:54:17.783Z,1012.06
2022-12-29T08:59:17.119Z,1012.04
2022-12-29T09:04:17.031Z,1011.89
2022-12-29T09:09:15.435Z,1012.07
2022-12-29T09:14:15.548Z,1012.20
2022-12-29T09:19:12.679Z,1012.16
2022-12-29T09:24:11.842Z,1012.31
2022-12-29T09:29:10.963Z,1012.14
2022-12-29T09:34:10.122Z,1011.91
2022-12-29T09:39:10.283Z,1011.99
2022-12-29T09:44:10.556Z,1011.94
2022-12-29T09:49:07.798Z,1011.87
2022-12-29T09:54:08.102Z,1012.02
2022-12-29T09:59:06.419Z,1011.97
2022-12-29T10:04:05.692Z,1011.84
2022-12-29T10:09:04.977Z,1011.87
2022-12-29T10:14:06.202Z,1011.86
2022-12-29T10:19:03.404Z,1011.81
2022-12-29T10:24:02.720Z,1011.77
2022-12-29T10:29:03.042Z,1011.64
2022-12-29T10:34:02.317Z,1011.55
2022-12-29T10:39:00.612Z,1011.66
2022-12-29T10:43:59.969Z,1011.57
2022-12-29T10:49:00.287Z,1011.63
2022-12-29T10:53:58.609Z,1011.47
2022-12-29T10:58:57.925Z,1011.40
2022-12-29T11:03:57.239Z,1011.26
2022-12-29T11:08:56.551Z,1011.38
2022-12-29T11:13:57.875Z,1011.14
2022-12-29T11:18:55.187Z,1011.24
2022-12-29T11:23:55.484Z,1011.15
2022-12-29T11:28:54.818Z,1011.03
2022-12-29T11:33:52.957Z,1010.94
2022-12-29T11:38:54.084Z,1010.99
2022-12-29T11:43:51.355Z,1010.82
2022-12-29T11:48:51.557Z,1010.84
2022-12-29T11:53:50.717Z,1010.77
2022-12-29T11:58:48.920Z,1010.69
2022-12-29T12:03:48.248Z,1010.71
2022-12-29T12:08:47.315Z,1010.60
2022-12-29T12:13:46.502Z,1010.60
2022-12-29T12:18:45.707Z,1010.49
2022-12-29T12:23:44.899Z,1010.49
2022-12-29T12:28:45.084Z,1010.40
2022-12-29T12:33:43.259Z,1010.37
2022-12-29T12:38:42.557Z,1010.28
2022-12-29T12:43:42.727Z,1010.26
2022-12-29T12:48:42.917Z,1010.17
2022-12-29T12:53:40.106Z,1010.18
2022-12-29T12:58:39.308Z,1010.13
2022-12-29T13:03:38.619Z,1009.93
2022-12-29T13:08:38.827Z,1009.94
2022-12-29T13:13:37.105Z,1009.81
2022-12-29T13:18:36.303Z,1009.74
2022-12-29T13:23:37.462Z,1009.68
2022-12-29T13:28:34.650Z,1009.71
2022-12-29T13:33:33.818Z,1009.73
2022-12-29T13:38:32.995Z,1009.86
2022-12-29T13:43:32.175Z,1009.68
2022-12-29T13:48:31.348Z,1009.77
2022-12-29T13:53:32.557Z,1009.75
2022-12-29T13:58:31.720Z,1009.76
2022-12-29T14:03:30.924Z,1009.76
2022-12-29T14:08:28.136Z,1009.85
2022-12-29T14:13:27.315Z,1009.80
2022-12-29T14:18:26.503Z,1009.74
2022-12-29T14:23:25.696Z,1009.70
2022-12-29T14:28:24.872Z,1009.64
2022-12-29T14:33:24.092Z,1009.67
2022-12-29T14:38:23.269Z,1009.87
2022-12-29T14:43:22.441Z,1009.90
2022-12-29T14:48:21.628Z,1009.84
2022-12-29T14:53:20.899Z,1009.89
2022-12-29T14:58:21.267Z,1009.85
2022-12-29T15:03:19.419Z,1009.81
2022-12-29T15:08:17.590Z,1009.85
2022-12-29T15:13:19.895Z,1009.92
2022-12-29T15:18:16.192Z,1009.87
2022-12-29T15:23:16.496Z,1009.91
2022-12-29T15:28:16.834Z,1009.96
2022-12-29T15:33:15.120Z,1010.04
2022-12-29T15:38:18.561Z,1010.11
2022-12-29T15:43:13.711Z,1010.13
2022-12-29T15:48:12.848Z,1010.15
2022-12-29T15:53:13.213Z,1010.20
2022-12-29T15:58:12.332Z,1010.35
2022-12-29T16:03:09.607Z,1010.31
2022-12-29T16:08:10.791Z,1010.38
2022-12-29T16:13:10.090Z,1010.34
2022-12-29T16:18:10.446Z,1010.51
2022-12-29T16:23:09.572Z,1010.45
2022-12-29T16:28:08.884Z,1010.38
2022-12-29T16:33:06.187Z,1010.39
2022-12-29T16:38:05.506Z,1010.44
2022-12-29T16:43:05.836Z,1010.37
2022-12-29T16:48:04.197Z,1010.41
2022-12-29T16:53:05.363Z,1010.50
2022-12-29T16:58:02.476Z,1010.53
2022-12-29T17:03:01.858Z,1010.68
2022-12-29T17:08:00.852Z,1010.65
2022-12-29T17:13:01.156Z,1010.73
2022-12-29T17:17:59.520Z,1010.65
2022-12-29T17:22:58.634Z,1010.56
2022-12-29T17:27:58.004Z,1010.69
2022-12-29T17:32:57.136Z,1010.66
2022-12-29T17:37:57.421Z,1010.61
2022-12-29T17:42:56.770Z,1010.56
2022-12-29T17:47:56.106Z,1010.58
2022-12-29T17:53:00.079Z,1010.68
2022-12-29T17:57:53.451Z,1010.67
2022-12-29T18:02:53.699Z,1010.64
2022-12-29T18:07:52.983Z,1010.68
2022-12-29T18:12:53.111Z,1010.68
2022-12-29T18:17:50.509Z,1010.86
2022-12-29T18:22:50.665Z,1010.79
2022-12-29T18:27:48.803Z,1010.79
2022-12-29T18:32:48.911Z,1010.81
2022-12-29T18:37:47.237Z,1010.87
2022-12-29T18:42:47.575Z,1010.91
2022-12-29T18:47:45.920Z,1010.96
2022-12-29T18:52:47.056Z,1010.89
2022-12-29T18:57:44.374Z,1010.84
2022-12-29T19:02:45.713Z,1010.87
2022-12-29T19:07:43.874Z,1010.97
2022-12-29T19:12:42.023Z,1010.95
2022-12-29T19:17:45.335Z,1011.08
2022-12-29T19:22:40.697Z,1011.16
2022-12-29T19:27:40.673Z,1011.04
2022-12-29T19:32:39.159Z,1011.07
2022-12-29T19:37:38.297Z,1011.03
2022-12-29T19:42:37.695Z,1011.09
2022-12-29T19:47:37.851Z,1011.11
2022-12-29T19:52:36.164Z,1011.10
2022-12-29T19:57:35.525Z,1011.17
2022-12-29T20:02:35.740Z,1011.10
2022-12-29T20:07:33.887Z,1011.19
2022-12-29T20:12:33.194Z,1011.08
2022-12-29T20:18:02.606Z,1011.11
2022-12-29T20:22:30.661Z,1011.13
2022-12-29T20:27:31.042Z,1011.11
2022-12-29T20:32:31.380Z,1011.02
2022-12-29T20:37:29.344Z,1011.27
2022-12-29T20:42:28.478Z,1011.36
2022-12-29T20:47:28.809Z,1011.02
2022-12-29T20:52:26.945Z,1011.14
2022-12-29T20:57:27.263Z,1011.35
2022-12-29T21:02:25.751Z,1011.47
2022-12-29T21:07:24.750Z,1011.19
2022-12-29T21:12:25.092Z,1011.27
2022-12-29T21:17:24.242Z,1011.33
2022-12-29T21:22:22.553Z,1011.32
2022-12-29T21:27:22.878Z,1011.31
2022-12-29T21:32:22.184Z,1011.18
2022-12-29T21:37:23.735Z,1011.37
2022-12-29T21:42:21.706Z,1011.49
2022-12-29T21:47:19.037Z,1011.71
2022-12-29T21:52:19.182Z,1011.57
2022-12-29T21:57:21.163Z,1011.71
2022-12-29T22:02:17.722Z,1011.81
2022-12-29T22:07:16.763Z,1011.78
2022-12-29T22:12:14.908Z,1011.88
2022-12-29T22:17:14.986Z,1012.00
2022-12-29T22:22:13.406Z,1012.00
2022-12-29T22:27:13.543Z,1011.89
2022-12-29T22:32:11.847Z,1011.88
2022-12-29T22:37:11.171Z,1011.73
2022-12-29T22:42:11.474Z,1011.60
2022-12-29T22:47:09.782Z,1011.68
2022-12-29T22:52:09.101Z,1011.81
2022-12-29T22:57:10.424Z,1011.97
2022-12-29T23:02:08.929Z,1012.15
2022-12-29T23:07:06.923Z,1012.09
2022-12-29T23:12:07.214Z,1012.20
2022-12-29T23:17:05.516Z,1012.13
2022-12-29T23:22:04.809Z,1012.06
2022-12-29T23:27:05.117Z,1012.13
2022-12-29T23:32:04.379Z,1012.18
2022-12-29T23:37:03.655Z,1012.21
2022-12-29T23:42:02.958Z,1012.24
2022-12-29T23:47:01.287Z,1012.28
2022-12-29T23:52:00.434Z,1012.33
2022-12-29T23:57:00.737Z,1012.28
